Time;durP1;ratioP1;P1;durP2;ratioP2;P2;SDS_P1;SDS_P2;PMS_P1;PMS_P2;Temp;Humidity;BMP_temperature;BMP_pressure;BME280_temperature;BME280_humidity;BME280_pressure;Samples;Min_cycle;Max_cycle;Signal;HPM_P1;HPM_P2
2021/12/19 00:02:03;;;;;;;3.22;2.92;;;24.20;32.10;;;;;;5053125;28;20803;-68
2021/12/19 00:09:21;;;;;;;3.83;2.97;;;24.20;32.10;;;;;;5070902;28;20379;-68
2021/12/19 00:11:47;;;;;;;3.50;2.80;;;24.10;32.10;;;;;;5052959;28;20416;-67
2021/12/19 00:14:12;;;;;;;3.70;2.80;;;24.20;32.10;;;;;;5071141;28;20445;-70
2021/12/19 00:16:38;;;;;;;3.75;2.97;;;24.10;32.10;;;;;;5070877;28;20441;-68
2021/12/19 00:19:04;;;;;;;4.40;3.10;;;24.10;32.10;;;;;;5053008;28;20437;-68
2021/12/19 00:21:32;;;;;;;3.35;2.88;;;24.00;31.90;;;;;;5047459;28;20397;-68
2021/12/19 00:23:58;;;;;;;3.72;3.15;;;24.00;32.20;;;;;;5037395;28;20389;-69
2021/12/19 00:26:24;;;;;;;3.42;3.10;;;24.00;32.10;;;;;;5041075;28;20473;-68
2021/12/19 00:28:53;;;;;;;3.50;3.20;;;24.00;32.20;;;;;;5039550;28;20463;-68
2021/12/19 00:31:19;;;;;;;3.20;2.90;;;23.90;32.00;;;;;;5042559;28;20774;-68
2021/12/19 00:33:45;;;;;;;3.00;2.67;;;23.90;32.10;;;;;;5045151;28;20413;-68
2021/12/19 00:36:12;;;;;;;3.50;3.20;;;23.90;32.20;;;;;;5044333;28;20397;-68
2021/12/19 00:38:38;;;;;;;4.05;2.90;;;23.90;32.00;;;;;;5040695;28;20868;-67
2021/12/19 00:41:06;;;;;;;3.23;2.83;;;23.90;32.20;;;;;;5045548;28;20873;-68
2021/12/19 00:46:42;;;;;;;3.53;2.97;;;23.80;32.20;;;;;;4992841;28;20399;-67
2021/12/19 00:49:09;;;;;;;3.55;3.00;;;23.80;32.10;;;;;;5061262;28;20814;-67
2021/12/19 00:51:35;;;;;;;3.40;2.92;;;23.80;32.20;;;;;;5073913;28;20971;-67
2021/12/19 00:54:00;;;;;;;3.25;2.90;;;23.80;32.20;;;;;;5074272;28;20463;-68
2021/12/19 00:56:27;;;;;;;4.00;3.10;;;23.70;32.20;;;;;;5074120;28;20475;-68
2021/12/19 00:58:53;;;;;;;4.00;3.10;;;23.70;32.20;;;;;;5074119;28;20388;-67
2021/12/19 01:01:19;;;;;;;3.38;2.95;;;23.70;32.20;;;;;;5073871;28;20384;-68
2021/12/19 01:03:47;;;;;;;3.15;2.85;;;23.70;32.10;;;;;;5074182;28;20384;-67
2021/12/19 01:06:17;;;;;;;3.47;3.17;;;23.70;32.30;;;;;;5074016;28;20391;-68
2021/12/19 01:08:43;;;;;;;3.45;2.75;;;23.70;32.30;;;;;;5073973;28;20387;-67
2021/12/19 01:11:09;;;;;;;3.30;2.95;;;23.60;32.00;;;;;;5073711;28;20403;-67
2021/12/19 01:13:35;;;;;;;3.50;3.10;;;23.60;32.30;;;;;;5073619;28;20744;-67
2021/12/19 01:16:02;;;;;;;3.80;3.40;;;23.60;32.20;;;;;;5074153;28;20384;-67
2021/12/19 01:18:28;;;;;;;3.13;2.83;;;23.60;31.80;;;;;;5073862;28;20803;-68
2021/12/19 01:20:55;;;;;;;3.67;3.10;;;23.50;32.10;;;;;;5074120;28;20387;-68
2021/12/19 01:23:24;;;;;;;3.00;2.65;;;23.50;32.30;;;;;;5055579;28;20840;-67
2021/12/19 01:25:51;;;;;;;3.30;2.85;;;23.50;31.90;;;;;;5074028;28;20383;-68
2021/12/19 01:28:18;;;;;;;3.63;3.20;;;23.50;32.30;;;;;;5073697;28;20388;-67
2021/12/19 01:30:44;;;;;;;3.95;3.25;;;23.50;32.30;;;;;;5055559;28;20419;-68
2021/12/19 01:33:10;;;;;;;3.60;3.20;;;23.50;32.30;;;;;;5073411;28;20978;-68
2021/12/19 01:35:36;;;;;;;4.03;3.00;;;23.40;32.30;;;;;;5073224;28;20423;-67
2021/12/19 01:38:02;;;;;;;3.80;2.90;;;23.40;32.10;;;;;;5073783;28;20475;-67
2021/12/19 01:40:28;;;;;;;3.95;3.35;;;23.40;32.00;;;;;;5073402;28;20437;-67
2021/12/19 01:42:57;;;;;;;3.10;2.70;;;23.40;32.30;;;;;;5073002;28;20400;-68
2021/12/19 01:45:38;;;;;;;3.38;3.05;;;23.30;32.40;;;;;;5054948;28;20410;-68
2021/12/19 01:48:08;;;;;;;3.58;3.28;;;23.30;32.40;;;;;;5073219;28;20412;-67
2021/12/19 01:50:34;;;;;;;3.73;3.33;;;23.30;32.10;;;;;;5073081;28;20387;-67
2021/12/19 01:53:02;;;;;;;2.95;2.65;;;23.30;32.30;;;;;;5073164;28;20887;-68
2021/12/19 01:55:29;;;;;;;3.45;3.05;;;23.20;32.50;;;;;;5072550;28;20396;-67
2021/12/19 01:57:55;;;;;;;3.60;3.17;;;23.20;32.40;;;;;;5073056;28;20387;-67
2021/12/19 02:00:25;;;;;;;3.53;2.90;;;23.20;32.30;;;;;;5073491;28;20384;-68
2021/12/19 02:02:52;;;;;;;3.90;3.00;;;23.20;32.50;;;;;;5073020;28;20425;-67
2021/12/19 02:05:18;;;;;;;3.30;3.00;;;23.10;32.40;;;;;;5072667;28;20391;-67
2021/12/19 02:07:47;;;;;;;3.22;2.80;;;23.20;32.50;;;;;;5072620;28;20384;-68
2021/12/19 02:10:18;;;;;;;3.30;3.00;;;23.10;32.50;;;;;;5072836;28;20395;-68
2021/12/19 02:12:46;;;;;;;4.10;2.97;;;23.10;32.50;;;;;;5072615;28;20907;-67
2021/12/19 02:15:18;;;;;;;3.92;3.00;;;23.10;32.50;;;;;;5072551;28;20399;-68
2021/12/19 02:17:45;;;;;;;3.45;3.15;;;23.00;32.50;;;;;;5072396;28;20407;-67
2021/12/19 02:20:12;;;;;;;3.63;3.25;;;23.10;32.50;;;;;;5072634;28;20434;-67
2021/12/19 02:22:39;;;;;;;3.80;3.15;;;23.00;32.50;;;;;;5072504;28;20387;-68
2021/12/19 02:25:06;;;;;;;3.55;3.25;;;23.00;32.60;;;;;;5072590;28;20379;-67
2021/12/19 02:27:33;;;;;;;3.38;2.95;;;23.00;32.60;;;;;;5071940;28;20473;-68
2021/12/19 02:29:59;;;;;;;3.70;3.00;;;23.00;32.60;;;;;;5054687;28;20395;-67
2021/12/19 02:32:27;;;;;;;3.20;2.70;;;22.90;32.50;;;;;;5054303;28;20504;-68
2021/12/19 02:34:55;;;;;;;3.10;2.80;;;22.90;32.60;;;;;;5072401;28;20779;-67
2021/12/19 02:48:14;;;;;;;3.55;3.17;;;22.80;32.60;;;;;;5072651;28;20449;-68
2021/12/19 02:50:48;;;;;;;3.17;2.70;;;22.80;32.70;;;;;;5071897;28;20398;-67
2021/12/19 02:53:19;;;;;;;3.30;3.00;;;22.70;32.60;;;;;;5071339;28;20399;-67
2021/12/19 02:55:45;;;;;;;3.95;3.10;;;22.70;32.60;;;;;;5071744;28;20399;-67
2021/12/19 02:58:11;;;;;;;3.10;2.80;;;22.70;32.70;;;;;;5071889;28;20395;-67
2021/12/19 03:00:38;;;;;;;3.72;3.15;;;22.70;32.70;;;;;;5071746;28;20883;-67
2021/12/19 03:03:04;;;;;;;3.50;3.00;;;22.70;32.70;;;;;;5072057;28;20434;-67
2021/12/19 03:05:32;;;;;;;3.50;3.10;;;22.70;32.70;;;;;;5071399;28;20395;-68
2021/12/19 03:08:00;;;;;;;3.55;3.03;;;22.60;32.70;;;;;;5071776;28;20664;-67
2021/12/19 03:18:28;;;;;;;3.67;3.08;;;22.60;32.80;;;;;;5071789;28;20437;-68
2021/12/19 03:20:54;;;;;;;3.38;3.00;;;22.60;32.80;;;;;;5071613;28;20380;-68
2021/12/19 03:23:20;;;;;;;3.95;3.20;;;22.50;32.80;;;;;;5071387;28;20387;-67
2021/12/19 03:25:46;;;;;;;3.70;3.30;;;22.50;32.90;;;;;;5071237;28;20387;-68
2021/12/19 03:28:13;;;;;;;3.33;3.00;;;22.50;32.80;;;;;;5071484;28;20445;-67
2021/12/19 03:30:41;;;;;;;3.75;3.17;;;22.50;32.90;;;;;;5071393;28;20468;-68
2021/12/19 03:33:07;;;;;;;3.40;3.10;;;22.40;32.80;;;;;;5071488;28;20911;-68
2021/12/19 03:35:33;;;;;;;3.53;3.17;;;22.40;32.80;;;;;;5070909;28;20387;-67
2021/12/19 03:38:03;;;;;;;3.53;2.97;;;22.40;33.50;;;;;;5071396;28;20403;-67
2021/12/19 03:40:36;;;;;;;3.90;3.10;;;22.40;32.90;;;;;;5053002;28;20399;-68
2021/12/19 03:43:06;;;;;;;3.55;3.15;;;22.40;32.90;;;;;;5071346;28;20483;-68
2021/12/19 03:45:34;;;;;;;3.80;3.40;;;22.40;32.90;;;;;;5070845;28;20927;-67
2021/12/19 03:48:01;;;;;;;3.90;3.20;;;22.40;32.90;;;;;;5053265;28;20406;-67
2021/12/19 03:50:27;;;;;;;3.70;3.25;;;22.40;32.90;;;;;;5053259;28;20388;-67
2021/12/19 03:52:55;;;;;;;3.67;3.30;;;22.30;32.90;;;;;;5071308;28;20415;-67
2021/12/19 03:55:24;;;;;;;3.33;3.00;;;22.30;32.90;;;;;;5052981;28;20441;-67
2021/12/19 03:57:50;;;;;;;3.35;3.05;;;22.30;33.00;;;;;;5071959;28;20411;-67
2021/12/19 04:00:23;;;;;;;3.53;3.03;;;22.30;33.10;;;;;;5071318;28;20867;-68
2021/12/19 04:02:56;;;;;;;3.35;3.05;;;22.30;33.10;;;;;;5053197;28;20457;-67
2021/12/19 04:05:23;;;;;;;3.75;3.35;;;22.20;33.30;;;;;;5071856;28;20387;-68
2021/12/19 04:07:48;;;;;;;3.65;3.10;;;22.20;33.10;;;;;;5074927;28;20497;-67
2021/12/19 04:10:15;;;;;;;3.40;3.10;;;22.20;33.00;;;;;;5075043;28;20388;-68
2021/12/19 04:12:42;;;;;;;3.30;3.00;;;22.20;33.40;;;;;;5075073;28;20451;-67
2021/12/19 04:15:10;;;;;;;3.85;3.40;;;22.20;33.30;;;;;;5075408;28;20391;-68
2021/12/19 04:17:36;;;;;;;3.70;3.10;;;22.10;33.10;;;;;;5074553;28;20387;-67
2021/12/19 04:20:03;;;;;;;3.63;3.22;;;22.10;33.30;;;;;;5056877;28;20376;-67
2021/12/19 04:22:29;;;;;;;3.20;2.90;;;22.10;33.40;;;;;;5074957;28;20399;-68
2021/12/19 04:24:54;;;;;;;3.40;3.10;;;22.10;33.30;;;;;;5074800;28;20454;-67
2021/12/19 04:27:20;;;;;;;3.70;3.10;;;22.10;33.40;;;;;;5056262;28;20397;-67
2021/12/19 04:29:47;;;;;;;3.40;3.10;;;22.00;33.40;;;;;;5074482;28;20395;-67
2021/12/19 04:32:13;;;;;;;3.40;3.00;;;22.00;33.40;;;;;;5074707;28;20473;-67
2021/12/19 04:34:39;;;;;;;4.10;3.40;;;22.00;33.40;;;;;;5074612;28;20392;-67
2021/12/19 04:37:24;;;;;;;3.42;3.13;;;22.00;33.40;;;;;;5074423;28;20937;-68
2021/12/19 04:39:59;;;;;;;3.50;3.20;;;22.00;34.00;;;;;;5056260;28;20770;-67
2021/12/19 04:53:23;;;;;;;3.90;3.30;;;21.90;33.50;;;;;;5074235;28;20418;-67
2021/12/19 05:03:39;;;;;;;3.78;3.38;;;21.80;33.50;;;;;;5073868;28;20894;-67
2021/12/19 05:06:15;;;;;;;3.58;3.28;;;21.80;33.60;;;;;;5055826;28;20391;-68
2021/12/19 05:14:13;;;;;;;3.60;3.30;;;21.70;33.50;;;;;;5073955;28;20391;-67
2021/12/19 05:16:40;;;;;;;3.63;3.20;;;21.80;33.40;;;;;;5073304;28;20380;-68
2021/12/19 05:19:18;;;;;;;3.53;3.00;;;21.70;33.40;;;;;;5073906;28;20433;-68
2021/12/19 05:21:44;;;;;;;4.50;3.47;;;21.70;33.60;;;;;;5073419;28;20364;-67
2021/12/19 05:26:44;;;;;;;3.50;3.00;;;21.70;33.40;;;;;;5073581;28;20375;-67
2021/12/19 05:29:10;;;;;;;3.80;3.50;;;21.70;33.40;;;;;;5073626;28;20442;-67
2021/12/19 05:31:37;;;;;;;3.63;3.33;;;21.60;33.40;;;;;;5073109;28;20496;-68
2021/12/19 05:34:03;;;;;;;3.72;3.33;;;21.60;33.40;;;;;;5073454;28;20426;-69
2021/12/19 05:47:09;;;;;;;3.65;3.20;;;21.50;33.40;;;;;;5071709;28;20444;-68
2021/12/19 05:49:34;;;;;;;3.30;3.00;;;21.50;33.50;;;;;;5073093;28;20392;-68
2021/12/19 05:52:01;;;;;;;3.47;3.17;;;21.50;33.50;;;;;;5073139;28;20403;-68
2021/12/19 05:54:27;;;;;;;3.90;3.30;;;21.50;33.50;;;;;;5073142;28;20395;-68
2021/12/19 05:56:52;;;;;;;3.87;3.20;;;21.50;33.50;;;;;;5072818;28;20418;-68
2021/12/19 05:59:19;;;;;;;3.53;3.15;;;21.50;33.50;;;;;;5072906;28;20427;-68
2021/12/19 06:01:46;;;;;;;3.92;3.20;;;21.50;33.40;;;;;;5072532;28;20863;-68
2021/12/19 06:04:12;;;;;;;3.80;3.40;;;21.50;33.50;;;;;;5072922;28;20388;-67
2021/12/19 06:06:37;;;;;;;3.47;3.17;;;21.40;33.50;;;;;;5072831;28;20518;-67
2021/12/19 06:09:04;;;;;;;3.80;3.40;;;21.40;33.70;;;;;;5073017;28;20756;-68
2021/12/19 06:11:29;;;;;;;3.55;3.25;;;21.40;33.50;;;;;;5072425;28;20803;-67
2021/12/19 06:13:55;;;;;;;4.70;3.92;;;21.40;33.60;;;;;;5072462;28;20394;-68
2021/12/19 06:16:21;;;;;;;5.67;3.90;;;21.40;33.60;;;;;;5072574;28;20391;-68
2021/12/19 06:18:47;;;;;;;6.93;3.80;;;21.40;34.70;;;;;;5054623;28;20384;-68
2021/12/19 06:21:13;;;;;;;5.45;3.80;;;21.50;34.70;;;;;;5072639;28;20503;-69
2021/12/19 06:23:39;;;;;;;6.17;4.20;;;21.50;35.20;;;;;;5072046;28;20479;-68
2021/12/19 06:26:05;;;;;;;7.30;3.97;;;21.50;35.70;;;;;;5072474;28;20392;-68
2021/12/19 06:28:30;;;;;;;5.57;4.03;;;21.50;35.80;;;;;;5071558;28;20387;-69
2021/12/19 06:30:56;;;;;;;6.60;4.13;;;21.50;35.80;;;;;;5054774;28;20391;-68
2021/12/19 06:33:22;;;;;;;7.88;3.60;;;21.50;36.00;;;;;;5072285;28;20388;-69
2021/12/19 06:35:48;;;;;;;5.18;3.70;;;21.50;36.00;;;;;;5053939;28;20384;-68
2021/12/19 06:38:15;;;;;;;5.17;4.00;;;21.60;36.00;;;;;;5054359;28;20399;-68
2021/12/19 06:40:41;;;;;;;5.57;4.53;;;21.60;36.00;;;;;;5072183;28;20391;-68
2021/12/19 06:43:07;;;;;;;4.57;3.50;;;21.60;36.10;;;;;;5050743;28;20405;-69
2021/12/19 06:45:33;;;;;;;4.40;4.00;;;21.60;36.10;;;;;;5034028;28;20401;-68
2021/12/19 06:47:58;;;;;;;5.90;3.92;;;21.60;36.10;;;;;;5051791;28;20385;-69
2021/12/19 06:50:25;;;;;;;5.13;3.70;;;21.60;36.10;;;;;;5050060;28;20393;-70
2021/12/19 06:52:50;;;;;;;4.20;3.70;;;21.60;36.20;;;;;;5050737;28;20414;-71
2021/12/19 06:55:17;;;;;;;4.65;3.78;;;21.60;36.20;;;;;;5050890;28;20489;-69
2021/12/19 06:57:43;;;;;;;4.80;3.92;;;21.50;36.00;;;;;;5050363;28;20900;-70
2021/12/19 07:00:15;;;;;;;4.10;3.70;;;21.50;36.00;;;;;;5032929;28;20394;-69
2021/12/19 07:02:41;;;;;;;6.72;4.15;;;21.50;36.40;;;;;;5032384;28;20405;-69
2021/12/19 07:05:07;;;;;;;4.22;3.72;;;21.60;36.50;;;;;;5030114;28;20397;-69
2021/12/19 07:07:34;;;;;;;4.80;3.78;;;21.50;36.50;;;;;;5050275;28;20417;-70
2021/12/19 07:10:00;;;;;;;4.53;4.07;;;21.50;36.50;;;;;;5049963;28;20381;-69
2021/12/19 07:12:26;;;;;;;7.18;3.80;;;21.50;36.50;;;;;;5050319;28;20789;-68
2021/12/19 07:14:56;;;;;;;5.57;3.95;;;21.50;36.60;;;;;;5032677;28;20969;-69
2021/12/19 07:17:22;;;;;;;5.57;4.97;;;21.50;36.30;;;;;;5032944;28;20774;-68
2021/12/19 07:19:48;;;;;;;5.10;4.15;;;21.40;35.00;;;;;;5033093;28;20389;-70
2021/12/19 07:22:14;;;;;;;4.70;3.88;;;21.30;35.40;;;;;;5033745;28;20433;-70
2021/12/19 07:24:40;;;;;;;5.97;5.22;;;21.20;35.00;;;;;;5033538;28;20459;-69
2021/12/19 07:27:05;;;;;;;6.97;4.68;;;21.20;34.10;;;;;;5051613;28;20390;-69
2021/12/19 07:29:31;;;;;;;5.97;4.50;;;21.10;33.60;;;;;;5051185;28;20386;-69
2021/12/19 07:31:58;;;;;;;5.72;4.50;;;21.00;34.20;;;;;;5033270;28;20924;-69
2021/12/19 07:34:31;;;;;;;5.50;4.47;;;21.00;34.00;;;;;;5051344;28;20385;-69
2021/12/19 07:36:57;;;;;;;7.15;5.10;;;21.00;34.20;;;;;;5051428;28;20420;-69
2021/12/19 07:42:07;;;;;;;4.97;4.32;;;21.00;34.10;;;;;;5060269;28;20534;-69
2021/12/19 07:44:35;;;;;;;5.50;4.90;;;21.10;34.00;;;;;;5053922;28;20414;-69
2021/12/19 07:47:01;;;;;;;6.88;4.78;;;21.10;34.10;;;;;;5053368;28;20399;-70
2021/12/19 07:49:26;;;;;;;7.30;5.17;;;21.20;34.30;;;;;;5053325;28;20392;-69
2021/12/19 07:51:52;;;;;;;6.38;4.95;;;21.20;34.60;;;;;;5070697;28;20406;-69
2021/12/19 07:54:18;;;;;;;8.77;4.82;;;21.30;34.60;;;;;;5071122;28;20433;-69
2021/12/19 07:56:43;;;;;;;5.37;4.60;;;21.20;34.40;;;;;;5053217;28;20387;-69
2021/12/19 07:59:09;;;;;;;5.30;4.20;;;21.30;34.30;;;;;;5053297;28;20471;-69
2021/12/19 08:01:35;;;;;;;6.03;5.00;;;21.30;34.40;;;;;;5070933;28;20427;-69
2021/12/19 08:04:01;;;;;;;5.43;3.90;;;21.30;34.20;;;;;;5070893;28;20385;-69
2021/12/19 08:06:27;;;;;;;5.70;4.50;;;21.40;34.10;;;;;;5071089;28;20395;-69
2021/12/19 08:08:55;;;;;;;7.68;5.32;;;21.40;34.20;;;;;;5071142;28;20388;-69
2021/12/19 08:11:39;;;;;;;8.00;5.20;;;21.40;34.80;;;;;;5070880;28;20413;-69
2021/12/19 08:14:10;;;;;;;6.88;5.20;;;21.50;35.30;;;;;;5070846;28;20419;-70
2021/12/19 08:16:35;;;;;;;6.07;5.10;;;21.50;34.50;;;;;;5072135;28;20489;-68
2021/12/19 08:19:01;;;;;;;8.50;5.63;;;21.50;34.60;;;;;;5053169;28;20412;-69
2021/12/19 08:21:27;;;;;;;8.75;5.32;;;21.50;34.80;;;;;;5070992;28;20392;-68
2021/12/19 08:23:57;;;;;;;13.40;6.37;;;21.50;35.10;;;;;;5052637;28;20787;-70
2021/12/19 08:26:22;;;;;;;9.35;6.22;;;21.60;35.90;;;;;;5070854;28;20419;-69
2021/12/19 08:28:48;;;;;;;9.63;5.87;;;21.60;36.00;;;;;;5053019;28;20430;-68
2021/12/19 08:31:13;;;;;;;7.28;4.95;;;21.60;36.00;;;;;;5053240;28;20470;-69
2021/12/19 08:33:39;;;;;;;7.53;5.40;;;21.70;35.60;;;;;;5070604;28;20884;-69
2021/12/19 08:36:05;;;;;;;5.72;4.57;;;21.70;35.70;;;;;;5070725;28;20387;-69
2021/12/19 08:38:30;;;;;;;5.55;4.50;;;21.70;34.70;;;;;;5070431;28;20454;-69
2021/12/19 08:40:56;;;;;;;8.88;4.80;;;21.70;34.40;;;;;;5070693;28;20398;-69
2021/12/19 08:43:22;;;;;;;7.07;4.20;;;21.70;35.60;;;;;;5070750;28;20431;-70
2021/12/19 08:45:48;;;;;;;5.20;4.00;;;21.70;35.10;;;;;;5070164;28;20772;-70
2021/12/19 08:48:14;;;;;;;6.40;4.20;;;21.80;34.60;;;;;;5070671;28;20384;-71
2021/12/19 08:50:40;;;;;;;6.73;4.00;;;21.70;34.60;;;;;;5070673;28;20395;-70
2021/12/19 08:53:06;;;;;;;6.50;3.83;;;21.80;34.60;;;;;;5073987;28;20416;-70
2021/12/19 08:55:33;;;;;;;7.78;4.07;;;21.80;34.50;;;;;;5056054;28;20470;-70
2021/12/19 08:57:58;;;;;;;5.43;3.80;;;21.80;34.30;;;;;;5073963;28;20428;-70
2021/12/19 09:00:25;;;;;;;6.18;3.92;;;21.80;34.40;;;;;;5074146;28;20388;-70
2021/12/19 09:02:53;;;;;;;6.10;3.90;;;21.80;34.40;;;;;;5074425;28;20767;-70
2021/12/19 09:05:20;;;;;;;6.25;3.50;;;21.80;34.30;;;;;;5074893;28;20384;-70
2021/12/19 09:07:46;;;;;;;4.93;3.60;;;21.80;34.30;;;;;;5074091;28;20890;-70
2021/12/19 09:10:12;;;;;;;5.47;3.50;;;21.80;34.20;;;;;;5074598;28;20388;-71
2021/12/19 09:12:38;;;;;;;5.57;3.20;;;21.80;34.20;;;;;;5073792;28;20490;-70
2021/12/19 09:15:05;;;;;;;4.75;3.28;;;21.80;34.10;;;;;;5074157;28;20391;-70
2021/12/19 09:17:31;;;;;;;5.50;3.10;;;21.80;34.10;;;;;;5073876;28;20394;-70
2021/12/19 09:19:57;;;;;;;7.47;3.45;;;21.80;33.90;;;;;;5073457;28;20525;-70
2021/12/19 09:22:22;;;;;;;5.18;2.92;;;21.80;33.90;;;;;;5076021;28;20817;-70
2021/12/19 09:24:48;;;;;;;5.37;3.20;;;21.80;33.80;;;;;;5073831;28;20384;-70
2021/12/19 09:27:14;;;;;;;6.15;3.20;;;21.90;33.80;;;;;;5055859;28;20483;-70
2021/12/19 09:29:40;;;;;;;4.88;3.40;;;21.90;33.70;;;;;;5054786;28;20884;-70
2021/12/19 09:32:06;;;;;;;4.55;3.30;;;21.90;33.60;;;;;;5055302;28;20435;-70
2021/12/19 09:34:33;;;;;;;4.40;3.05;;;22.00;33.50;;;;;;5073393;28;20896;-70
2021/12/19 09:37:00;;;;;;;3.33;3.00;;;22.00;33.40;;;;;;5073493;28;20396;-70
2021/12/19 09:39:26;;;;;;;4.35;3.20;;;21.90;33.40;;;;;;5073431;28;20391;-71
2021/12/19 09:41:59;;;;;;;5.45;3.30;;;21.90;33.60;;;;;;5072019;28;20410;-70
2021/12/19 09:44:27;;;;;;;5.23;3.30;;;21.90;34.00;;;;;;5071337;28;20816;-70
2021/12/19 09:46:53;;;;;;;6.47;3.40;;;22.00;34.40;;;;;;5072043;28;20383;-70
2021/12/19 09:49:21;;;;;;;4.22;3.25;;;22.00;34.60;;;;;;5071807;28;20391;-72
2021/12/19 09:51:49;;;;;;;7.10;4.53;;;22.10;34.30;;;;;;5071627;28;20435;-71
2021/12/19 09:54:15;;;;;;;7.22;4.05;;;22.10;35.20;;;;;;5072001;28;20388;-70
2021/12/19 09:56:42;;;;;;;5.57;3.70;;;22.20;35.40;;;;;;5053974;28;20384;-70
2021/12/19 09:59:20;;;;;;;4.55;3.55;;;22.20;35.50;;;;;;5053918;28;20400;-71
2021/12/19 10:01:47;;;;;;;6.93;3.83;;;22.20;35.40;;;;;;5071572;28;20449;-71
2021/12/19 10:04:37;;;;;;;4.70;3.60;;;22.20;35.40;;;;;;5071792;28;20391;-70
2021/12/19 10:07:09;;;;;;;3.70;3.25;;;22.30;35.30;;;;;;5071526;28;20499;-70
2021/12/19 10:09:49;;;;;;;4.97;3.50;;;22.30;35.20;;;;;;5071733;28;20863;-70
2021/12/19 10:15:03;;;;;;;4.32;3.42;;;22.30;35.20;;;;;;5071245;28;20891;-71
2021/12/19 10:17:28;;;;;;;3.95;3.10;;;22.40;35.30;;;;;;5071484;28;20372;-70
2021/12/19 10:19:57;;;;;;;3.70;3.20;;;22.40;34.70;;;;;;5071033;28;20396;-70
2021/12/19 10:22:28;;;;;;;3.55;3.20;;;22.50;34.60;;;;;;5072043;28;20383;-70
2021/12/19 10:25:30;;;;;;;5.47;3.20;;;22.40;34.30;;;;;;5072639;28;20410;-70
2021/12/19 10:28:00;;;;;;;4.40;3.03;;;22.50;34.20;;;;;;5071875;28;20391;-70
2021/12/19 10:30:33;;;;;;;3.30;2.75;;;22.50;34.10;;;;;;5054451;28;20406;-70
2021/12/19 10:33:03;;;;;;;3.60;3.13;;;22.50;33.90;;;;;;5069848;28;20423;-70
2021/12/19 10:35:49;;;;;;;4.25;3.00;;;22.50;33.80;;;;;;5053961;28;20396;-70
2021/12/19 10:38:22;;;;;;;4.18;2.90;;;22.50;33.70;;;;;;5072382;28;20537;-70
2021/12/19 10:40:53;;;;;;;3.47;2.70;;;22.50;33.70;;;;;;5083293;28;20909;-70
2021/12/19 10:43:21;;;;;;;3.35;2.60;;;22.60;33.60;;;;;;5090175;28;20406;-70
2021/12/19 10:45:51;;;;;;;3.25;2.90;;;22.60;33.60;;;;;;5076233;28;20437;-70
2021/12/19 10:48:20;;;;;;;3.55;2.90;;;22.60;33.60;;;;;;5080139;28;20487;-70
2021/12/19 10:50:57;;;;;;;3.28;2.67;;;22.60;33.50;;;;;;5084981;28;20386;-70
2021/12/19 10:53:26;;;;;;;3.13;2.70;;;22.60;33.40;;;;;;5069629;28;20420;-70
2021/12/19 10:55:52;;;;;;;3.50;2.58;;;22.50;33.30;;;;;;5071206;28;20388;-70
2021/12/19 10:58:47;;;;;;;2.87;2.53;;;22.50;33.30;;;;;;5071832;28;20393;-70
2021/12/19 11:01:19;;;;;;;3.65;2.60;;;22.50;33.30;;;;;;5072319;28;20860;-70
2021/12/19 11:04:08;;;;;;;2.90;2.60;;;22.50;33.20;;;;;;5084446;28;20390;-70
2021/12/19 11:06:52;;;;;;;3.63;2.80;;;22.50;33.20;;;;;;5071656;28;20372;-70
2021/12/19 11:09:27;;;;;;;3.27;2.60;;;22.50;33.10;;;;;;5070027;28;20392;-70
2021/12/19 11:11:54;;;;;;;3.00;2.60;;;22.50;33.20;;;;;;5071109;28;20488;-71
2021/12/19 11:14:22;;;;;;;3.58;2.50;;;22.50;33.10;;;;;;5073469;28;20395;-71
2021/12/19 11:16:50;;;;;;;3.17;2.72;;;22.50;33.00;;;;;;5070449;28;20379;-70
2021/12/19 11:19:16;;;;;;;3.15;2.67;;;22.50;32.90;;;;;;5081841;28;20402;-69
2021/12/19 11:21:42;;;;;;;3.15;2.85;;;22.50;32.90;;;;;;5073069;28;20375;-70
2021/12/19 11:24:11;;;;;;;3.17;2.63;;;22.50;32.80;;;;;;5084239;28;20403;-70
2021/12/19 11:26:38;;;;;;;3.08;2.60;;;22.60;32.90;;;;;;5069977;28;20406;-70
2021/12/19 11:29:06;;;;;;;3.00;2.70;;;22.60;32.70;;;;;;5071280;28;20763;-70
2021/12/19 11:31:32;;;;;;;3.60;2.50;;;22.60;32.60;;;;;;5071148;28;20484;-70
2021/12/19 11:34:04;;;;;;;3.08;2.70;;;22.60;32.80;;;;;;5070762;28;20422;-69
2021/12/19 11:36:37;;;;;;;4.35;3.40;;;22.60;32.70;;;;;;5071149;28;20375;-69
2021/12/19 11:39:06;;;;;;;7.90;4.10;;;22.60;32.40;;;;;;5073860;28;20408;-69
2021/12/19 11:41:33;;;;;;;11.23;3.90;;;22.50;32.40;;;;;;5086152;28;20949;-69
2021/12/19 11:44:06;;;;;;;7.57;3.92;;;22.80;34.50;;;;;;5090420;28;20755;-70
2021/12/19 11:46:53;;;;;;;8.93;3.65;;;23.00;34.30;;;;;;5090194;28;20386;-69
2021/12/19 11:49:23;;;;;;;8.40;3.88;;;23.20;34.10;;;;;;5090302;28;20393;-70
2021/12/19 11:52:22;;;;;;;8.93;3.80;;;23.30;34.20;;;;;;5072744;28;20406;-69
2021/12/19 11:55:21;;;;;;;8.30;3.65;;;23.40;34.50;;;;;;5090041;28;20398;-68
2021/12/19 11:58:09;;;;;;;5.28;3.10;;;23.50;34.80;;;;;;5089496;28;20718;-69
2021/12/19 12:00:55;;;;;;;7.38;3.20;;;23.70;34.60;;;;;;5090022;28;20398;-68
2021/12/19 12:03:25;;;;;;;5.55;3.10;;;23.70;34.60;;;;;;5089511;28;20754;-68
2021/12/19 12:06:16;;;;;;;6.38;3.10;;;23.80;34.20;;;;;;5090005;28;20422;-69
2021/12/19 12:09:07;;;;;;;7.53;3.10;;;23.90;34.90;;;;;;5051243;28;20390;-70
2021/12/19 12:11:35;;;;;;;5.30;2.90;;;24.00;33.90;;;;;;5071473;28;20489;-70
2021/12/19 12:14:39;;;;;;;4.85;2.90;;;24.00;33.80;;;;;;5089635;28;20400;-70
2021/12/19 12:17:12;;;;;;;4.93;2.88;;;24.10;33.70;;;;;;5008214;28;20392;-69
2021/12/19 12:19:58;;;;;;;5.15;2.80;;;24.10;33.80;;;;;;5079084;28;20456;-69
2021/12/19 12:22:44;;;;;;;5.38;2.90;;;24.20;33.10;;;;;;5079297;28;20456;-71
2021/12/19 12:25:24;;;;;;;4.78;2.80;;;24.20;33.10;;;;;;5068130;28;20395;-70
2021/12/19 12:28:02;;;;;;;4.17;2.70;;;24.30;32.80;;;;;;5071488;28;20418;-70
2021/12/19 12:30:45;;;;;;;4.05;2.83;;;24.30;32.80;;;;;;5071795;28;20415;-70
2021/12/19 12:33:14;;;;;;;3.13;2.53;;;24.30;32.50;;;;;;5064136;28;20447;-70
2021/12/19 12:35:42;;;;;;;6.90;3.58;;;24.40;32.80;;;;;;5063158;28;20389;-70
2021/12/19 12:38:09;;;;;;;4.10;2.55;;;24.50;32.30;;;;;;5051359;28;20457;-69
2021/12/19 12:40:48;;;;;;;3.72;2.80;;;24.50;32.30;;;;;;5054783;28;20376;-70
2021/12/19 12:43:15;;;;;;;4.70;2.70;;;24.50;32.20;;;;;;5049786;28;20416;-70
2021/12/19 12:45:47;;;;;;;3.17;2.50;;;24.60;32.10;;;;;;5052043;28;20408;-70
2021/12/19 12:48:28;;;;;;;2.78;2.40;;;24.60;32.00;;;;;;5051695;28;20830;-71
2021/12/19 12:50:53;;;;;;;3.20;2.35;;;24.60;32.10;;;;;;5043170;28;20393;-71
2021/12/19 12:53:35;;;;;;;3.95;2.90;;;24.60;31.90;;;;;;5040470;28;20421;-72
2021/12/19 12:56:10;;;;;;;3.70;2.65;;;24.70;32.10;;;;;;5053361;28;20468;-72
2021/12/19 12:58:38;;;;;;;3.70;2.53;;;24.80;32.20;;;;;;5052313;28;20485;-71
2021/12/19 13:01:13;;;;;;;3.70;2.50;;;24.80;32.50;;;;;;5040534;28;20382;-69
2021/12/19 13:03:39;;;;;;;3.90;2.35;;;24.80;32.10;;;;;;5043333;28;20410;-69
2021/12/19 13:06:04;;;;;;;2.97;2.30;;;24.90;31.80;;;;;;5051344;28;20401;-72
2021/12/19 13:08:30;;;;;;;4.47;2.70;;;25.00;31.90;;;;;;5042224;28;20772;-69
2021/12/19 13:10:58;;;;;;;3.28;2.30;;;25.00;31.70;;;;;;5049166;28;20439;-69
2021/12/19 13:13:27;;;;;;;5.03;2.42;;;25.00;31.90;;;;;;5054144;28;20773;-69
2021/12/19 13:16:03;;;;;;;4.68;2.30;;;25.10;31.70;;;;;;5053677;28;20396;-69
2021/12/19 13:18:29;;;;;;;2.92;2.10;;;25.10;32.00;;;;;;5054056;28;20410;-69
2021/12/19 13:21:02;;;;;;;3.53;2.33;;;25.20;32.00;;;;;;5053693;28;20397;-69
2021/12/19 13:23:28;;;;;;;3.85;2.33;;;25.20;31.70;;;;;;5053713;28;20385;-69
2021/12/19 13:26:01;;;;;;;3.40;2.10;;;25.20;31.50;;;;;;5053462;28;20447;-69
2021/12/19 13:28:27;;;;;;;4.93;2.63;;;25.20;31.60;;;;;;5053700;28;20400;-69
2021/12/19 13:30:55;;;;;;;4.63;2.40;;;25.30;31.60;;;;;;5053709;28;20394;-69
2021/12/19 13:33:21;;;;;;;4.20;2.40;;;25.30;31.50;;;;;;5053003;28;20827;-69
2021/12/19 13:35:51;;;;;;;4.65;2.38;;;25.40;31.60;;;;;;5053235;28;20390;-72
2021/12/19 13:38:21;;;;;;;4.50;2.40;;;25.30;31.30;;;;;;5052786;28;20481;-71
2021/12/19 13:40:49;;;;;;;6.10;2.58;;;25.30;31.30;;;;;;5053385;28;20397;-69
2021/12/19 13:43:21;;;;;;;3.63;2.50;;;25.30;31.20;;;;;;5072733;28;20396;-70
2021/12/19 13:45:58;;;;;;;3.78;2.40;;;25.30;31.20;;;;;;5073162;28;20474;-70
2021/12/19 13:48:37;;;;;;;4.07;2.50;;;25.40;31.00;;;;;;5073330;28;20883;-70
2021/12/19 13:51:22;;;;;;;4.38;2.65;;;25.50;31.00;;;;;;5073384;28;20387;-71
2021/12/19 13:53:52;;;;;;;4.60;2.22;;;25.60;31.00;;;;;;5061163;28;20477;-71
2021/12/19 13:56:19;;;;;;;3.22;2.00;;;25.70;31.10;;;;;;5061184;28;20386;-69
2021/12/19 13:58:49;;;;;;;4.03;2.33;;;25.80;31.20;;;;;;5071737;28;20387;-69
2021/12/19 14:01:24;;;;;;;3.27;2.00;;;25.80;30.90;;;;;;5071870;28;20414;-70
2021/12/19 14:03:57;;;;;;;3.38;2.17;;;25.80;30.80;;;;;;5045468;28;20465;-70
2021/12/19 14:06:31;;;;;;;4.00;2.10;;;25.90;30.80;;;;;;5072741;28;20875;-69
2021/12/19 14:09:03;;;;;;;2.95;2.30;;;25.90;31.60;;;;;;5073048;28;20533;-70